Time;durP1;ratioP1;P1;durP2;ratioP2;P2;SDS_P1;SDS_P2;PMS_P1;PMS_P2;Temp;Humidity;BMP_temperature;BMP_pressure;BME280_temperature;BME280_humidity;BME280_pressure;Samples;Min_cycle;Max_cycle;Signal;HPM_P1;HPM_P2
2022/10/13 00:01:18;;;;;;;13.50;8.75;;;13.30;81.40;;;;;;5024457;28;20090;-74
2022/10/13 00:03:47;;;;;;;14.95;8.80;;;13.30;81.40;;;;;;5025844;28;20037;-75
2022/10/13 00:06:15;;;;;;;13.18;8.75;;;13.30;81.40;;;;;;5026851;28;20029;-75
2022/10/13 00:08:42;;;;;;;15.25;9.77;;;13.30;81.50;;;;;;5013043;28;20111;-75
2022/10/13 00:11:20;;;;;;;15.48;9.95;;;13.30;81.50;;;;;;5022591;28;20516;-75
2022/10/13 00:13:47;;;;;;;18.70;9.90;;;13.30;81.60;;;;;;5023330;28;20068;-75
2022/10/13 00:16:15;;;;;;;16.33;8.95;;;13.30;81.60;;;;;;5024203;28;20397;-75
2022/10/13 00:18:41;;;;;;;16.65;9.77;;;13.30;81.70;;;;;;5025322;28;20516;-74
2022/10/13 00:21:09;;;;;;;13.90;9.30;;;13.30;81.80;;;;;;5022298;28;20042;-74
2022/10/13 00:23:35;;;;;;;12.38;8.70;;;13.20;81.80;;;;;;5005833;28;20030;-74
2022/10/13 00:26:05;;;;;;;16.23;9.90;;;13.20;81.80;;;;;;5025513;28;20030;-75
2022/10/13 00:28:31;;;;;;;16.13;9.65;;;13.20;82.00;;;;;;5005581;28;20029;-77
2022/10/13 00:30:57;;;;;;;14.70;9.60;;;13.20;82.00;;;;;;5026350;28;20129;-76
2022/10/13 00:33:23;;;;;;;14.32;9.38;;;13.20;82.00;;;;;;5023129;28;20140;-75
2022/10/13 00:35:49;;;;;;;14.57;9.93;;;13.20;82.20;;;;;;5025698;28;20065;-75
2022/10/13 00:38:19;;;;;;;15.18;10.10;;;13.20;82.30;;;;;;5023918;28;20044;-76
2022/10/13 00:40:54;;;;;;;18.40;9.82;;;13.20;82.40;;;;;;5006581;28;20113;-76
2022/10/13 00:43:22;;;;;;;15.77;10.18;;;13.20;82.50;;;;;;5005266;28;20350;-76
2022/10/13 00:45:49;;;;;;;14.68;9.50;;;13.20;82.60;;;;;;5024483;28;20040;-75
2022/10/13 00:48:17;;;;;;;15.57;10.00;;;13.20;82.70;;;;;;5024446;28;20187;-75
2022/10/13 00:50:43;;;;;;;17.88;9.00;;;13.20;82.60;;;;;;5018091;28;20124;-74
2022/10/13 00:53:10;;;;;;;16.50;10.27;;;13.20;82.70;;;;;;5022312;28;20041;-75
2022/10/13 00:55:38;;;;;;;16.25;10.05;;;13.20;82.80;;;;;;5040940;28;20052;-75
2022/10/13 00:58:07;;;;;;;15.70;10.10;;;13.20;82.90;;;;;;5029607;28;20617;-74
2022/10/13 01:00:34;;;;;;;15.10;9.93;;;13.20;82.90;;;;;;5024001;28;20042;-74
2022/10/13 01:03:00;;;;;;;14.95;10.95;;;13.20;82.90;;;;;;4998276;28;20029;-75
2022/10/13 01:05:26;;;;;;;14.10;10.07;;;13.20;82.90;;;;;;5027057;28;20462;-75
2022/10/13 01:07:53;;;;;;;17.27;11.07;;;13.20;82.90;;;;;;5014244;28;20086;-75
2022/10/13 01:10:47;;;;;;;17.17;11.15;;;13.10;83.00;;;;;;5028672;28;20033;-74
2022/10/13 01:13:25;;;;;;;16.43;10.23;;;13.10;83.00;;;;;;5023238;28;20116;-74
2022/10/13 01:16:03;;;;;;;15.05;9.95;;;13.10;83.00;;;;;;5023187;28;20056;-76
2022/10/13 01:18:41;;;;;;;17.08;10.88;;;13.10;83.20;;;;;;5024212;28;20024;-75
2022/10/13 01:21:10;;;;;;;18.10;11.13;;;13.10;83.20;;;;;;5022649;28;20482;-75
2022/10/13 01:23:41;;;;;;;18.15;10.25;;;13.10;83.20;;;;;;5022310;28;20372;-76
2022/10/13 01:26:40;;;;;;;18.90;11.30;;;13.10;83.20;;;;;;5027497;28;20026;-74
2022/10/13 01:29:15;;;;;;;20.15;11.18;;;13.10;83.50;;;;;;5020881;28;20360;-75
2022/10/13 01:31:47;;;;;;;14.30;9.90;;;13.10;83.40;;;;;;5022828;28;20049;-75
2022/10/13 01:34:22;;;;;;;15.50;11.02;;;13.10;83.40;;;;;;5022170;28;20087;-76
2022/10/13 01:36:52;;;;;;;14.07;10.43;;;13.10;83.50;;;;;;5020693;28;20053;-75
2022/10/13 01:39:36;;;;;;;16.10;10.77;;;13.10;83.50;;;;;;5021775;28;20100;-74
2022/10/13 01:42:15;;;;;;;16.60;11.18;;;13.10;83.50;;;;;;5003789;28;20112;-76
2022/10/13 01:44:45;;;;;;;15.45;10.13;;;13.10;83.50;;;;;;5030407;28;20103;-75
2022/10/13 01:47:14;;;;;;;13.93;10.27;;;13.10;83.50;;;;;;5005110;28;20048;-76
2022/10/13 01:49:41;;;;;;;16.30;10.43;;;13.10;83.50;;;;;;5023424;28;20103;-75
2022/10/13 01:52:13;;;;;;;16.88;10.75;;;13.00;83.50;;;;;;5023110;28;20685;-77
2022/10/13 01:54:39;;;;;;;16.45;10.73;;;13.10;83.60;;;;;;5017583;28;20044;-75
2022/10/13 01:57:36;;;;;;;16.05;10.90;;;13.00;83.60;;;;;;5026550;28;20042;-76
2022/10/13 02:00:08;;;;;;;16.42;10.48;;;13.00;83.60;;;;;;5005222;28;20502;-75
2022/10/13 02:02:38;;;;;;;15.52;10.65;;;13.10;83.60;;;;;;5019504;28;20044;-75
2022/10/13 02:05:31;;;;;;;17.50;12.18;;;13.10;83.50;;;;;;5023674;28;20087;-76
2022/10/13 02:08:12;;;;;;;16.48;10.85;;;13.10;83.60;;;;;;5010122;28;20094;-75
2022/10/13 02:11:02;;;;;;;14.68;10.70;;;13.10;83.60;;;;;;5022892;28;20148;-77
2022/10/13 02:13:31;;;;;;;16.67;11.00;;;13.00;83.70;;;;;;5021259;28;20041;-75
2022/10/13 02:15:59;;;;;;;16.48;11.30;;;13.10;83.60;;;;;;5028075;28;20156;-75
2022/10/13 02:18:29;;;;;;;17.27;11.82;;;13.10;83.60;;;;;;5028154;28;20372;-75
2022/10/13 02:20:55;;;;;;;18.77;12.45;;;13.10;83.70;;;;;;5022426;28;20458;-76
2022/10/13 02:23:21;;;;;;;18.52;11.15;;;13.10;83.80;;;;;;5004694;28;20087;-76
2022/10/13 02:25:48;;;;;;;17.70;11.25;;;13.10;83.90;;;;;;5022583;28;20042;-75
2022/10/13 02:28:15;;;;;;;14.27;11.13;;;13.10;84.00;;;;;;5024436;28;20040;-75
2022/10/13 02:30:41;;;;;;;19.50;12.40;;;13.00;84.00;;;;;;5025725;28;20048;-75
2022/10/13 02:33:08;;;;;;;17.67;11.75;;;13.10;84.10;;;;;;5022142;28;20032;-76
2022/10/13 02:35:33;;;;;;;18.77;12.30;;;13.10;84.10;;;;;;5021027;28;20049;-74
2022/10/13 02:37:59;;;;;;;15.63;10.77;;;13.10;84.10;;;;;;5020534;28;20149;-75
2022/10/13 02:40:26;;;;;;;23.00;12.10;;;13.00;84.10;;;;;;5023136;28;20065;-74
2022/10/13 02:42:51;;;;;;;19.00;12.13;;;13.10;84.10;;;;;;5009652;28;20034;-74
2022/10/13 02:45:18;;;;;;;16.40;12.32;;;13.10;84.10;;;;;;5005269;28;20079;-75
2022/10/13 02:47:43;;;;;;;19.73;12.30;;;13.00;84.20;;;;;;5041973;28;20326;-75
2022/10/13 02:50:09;;;;;;;20.27;12.27;;;13.00;84.30;;;;;;5009684;28;20037;-76
2022/10/13 02:52:35;;;;;;;22.15;12.40;;;13.10;84.10;;;;;;5023583;28;20148;-76
2022/10/13 02:55:01;;;;;;;18.45;12.18;;;13.00;84.10;;;;;;5031174;28;20029;-76
2022/10/13 02:57:26;;;;;;;19.40;13.60;;;13.10;84.20;;;;;;5028008;28;20026;-74
2022/10/13 02:59:52;;;;;;;19.55;11.98;;;13.10;84.20;;;;;;5024056;28;20037;-76
2022/10/13 03:02:17;;;;;;;19.15;12.00;;;13.00;84.30;;;;;;5026307;28;20376;-76
2022/10/13 03:04:43;;;;;;;17.75;12.55;;;13.10;84.40;;;;;;5026177;28;20047;-75
2022/10/13 03:07:09;;;;;;;17.17;12.23;;;13.10;84.40;;;;;;5025963;28;20116;-75
2022/10/13 03:09:35;;;;;;;20.52;12.30;;;13.10;84.50;;;;;;5026818;28;20025;-74
2022/10/13 03:12:00;;;;;;;18.42;12.85;;;13.10;84.50;;;;;;5027111;28;20041;-75
2022/10/13 03:14:26;;;;;;;17.30;12.40;;;13.10;84.50;;;;;;5023109;28;20049;-75
2022/10/13 03:16:52;;;;;;;19.17;12.30;;;13.10;84.60;;;;;;5026368;28;20034;-75
2022/10/13 03:19:17;;;;;;;21.42;12.95;;;13.10;84.60;;;;;;5024191;28;20385;-75
2022/10/13 03:21:43;;;;;;;19.10;13.18;;;13.10;84.60;;;;;;5030607;28;20087;-75
2022/10/13 03:24:09;;;;;;;21.00;12.90;;;13.10;84.80;;;;;;5025496;28;20384;-76
2022/10/13 03:26:34;;;;;;;20.08;12.57;;;13.10;84.70;;;;;;5027057;28;20022;-75
2022/10/13 03:29:00;;;;;;;18.25;12.68;;;13.10;84.60;;;;;;5024673;28;21046;-75
2022/10/13 03:31:26;;;;;;;19.63;12.55;;;13.10;84.70;;;;;;5024744;28;20072;-74
2022/10/13 03:33:52;;;;;;;18.92;12.02;;;13.10;84.70;;;;;;5008238;28;20025;-74
2022/10/13 03:36:18;;;;;;;22.67;12.63;;;13.10;84.60;;;;;;5027013;28;20033;-75
2022/10/13 03:38:44;;;;;;;19.60;11.75;;;13.10;84.60;;;;;;5027766;28;20492;-76
2022/10/13 03:41:17;;;;;;;20.80;12.73;;;13.10;84.60;;;;;;5023763;28;20046;-76
2022/10/13 03:43:43;;;;;;;18.15;11.75;;;13.10;84.60;;;;;;5007475;28;20427;-74
2022/10/13 03:46:15;;;;;;;16.25;11.15;;;13.00;84.60;;;;;;5026957;28;20473;-75
2022/10/13 03:48:41;;;;;;;18.42;12.77;;;13.10;84.60;;;;;;5025225;28;20029;-75
2022/10/13 03:51:09;;;;;;;18.75;12.15;;;13.10;84.70;;;;;;5024868;28;20088;-76
2022/10/13 03:53:35;;;;;;;18.30;12.13;;;13.10;84.60;;;;;;5025836;28;20057;-74
2022/10/13 03:56:00;;;;;;;18.98;12.80;;;13.00;84.70;;;;;;5027238;28;20052;-76
2022/10/13 03:58:29;;;;;;;21.83;13.07;;;13.00;84.60;;;;;;5023504;28;20376;-75
2022/10/13 04:00:55;;;;;;;18.95;11.85;;;13.10;84.60;;;;;;5025554;28;20080;-76
2022/10/13 04:03:21;;;;;;;18.58;12.00;;;13.00;84.70;;;;;;5027957;28;20255;-75
2022/10/13 04:05:47;;;;;;;18.40;12.90;;;13.10;84.60;;;;;;5024608;28;20486;-76
2022/10/13 04:08:13;;;;;;;14.88;11.70;;;13.00;84.60;;;;;;5030794;28;20033;-76
2022/10/13 04:10:39;;;;;;;18.27;12.60;;;13.10;84.60;;;;;;5011514;28;20021;-77
2022/10/13 04:13:04;;;;;;;20.52;12.50;;;13.10;84.70;;;;;;5024163;28;20037;-75
2022/10/13 04:15:34;;;;;;;17.00;12.13;;;13.10;84.50;;;;;;5013019;28;20091;-76
2022/10/13 04:18:00;;;;;;;19.63;12.90;;;13.10;84.40;;;;;;5026570;28;20029;-76
2022/10/13 04:20:26;;;;;;;17.25;11.88;;;13.10;84.30;;;;;;5024483;28;20037;-74
2022/10/13 04:22:51;;;;;;;18.55;12.30;;;13.00;84.20;;;;;;5020394;28;20084;-76
2022/10/13 04:25:17;;;;;;;18.73;11.95;;;13.10;84.20;;;;;;5024553;28;20041;-76
2022/10/13 04:27:43;;;;;;;18.65;12.27;;;13.00;84.20;;;;;;5025241;28;20121;-75
2022/10/13 04:30:09;;;;;;;22.58;13.18;;;13.00;84.10;;;;;;5024132;28;20051;-76
2022/10/13 04:32:35;;;;;;;15.95;11.48;;;13.00;84.10;;;;;;5022303;28;20030;-76
2022/10/13 04:35:01;;;;;;;19.98;12.25;;;13.00;84.10;;;;;;5015622;28;20033;-74
2022/10/13 04:37:26;;;;;;;19.73;12.20;;;13.10;84.20;;;;;;5016828;28;20037;-78
2022/10/13 04:39:52;;;;;;;17.73;11.95;;;13.10;84.10;;;;;;5016012;28;20041;-76
2022/10/13 04:42:17;;;;;;;22.15;12.30;;;13.10;84.00;;;;;;5016962;28;20026;-76
2022/10/13 04:44:43;;;;;;;20.63;13.23;;;13.10;84.00;;;;;;5015501;28;20041;-75
2022/10/13 04:47:08;;;;;;;17.38;12.60;;;13.10;84.00;;;;;;5018099;28;20607;-75
2022/10/13 04:49:34;;;;;;;17.52;11.48;;;13.10;84.00;;;;;;5014985;28;20053;-76
2022/10/13 04:52:00;;;;;;;23.42;12.68;;;13.10;84.00;;;;;;5017344;28;20052;-74
2022/10/13 04:54:25;;;;;;;20.65;12.77;;;13.10;84.20;;;;;;5006379;28;20030;-76
2022/10/13 04:56:51;;;;;;;20.83;12.60;;;13.10;84.20;;;;;;5018701;28;21627;-75
2022/10/13 04:59:17;;;;;;;21.30;12.52;;;13.10;84.10;;;;;;5022829;28;20115;-75
2022/10/13 05:01:42;;;;;;;19.50;12.60;;;13.10;84.20;;;;;;5022868;28;20083;-75
2022/10/13 05:04:09;;;;;;;18.27;12.93;;;13.10;84.20;;;;;;5023519;28;20037;-76
2022/10/13 05:06:37;;;;;;;21.58;14.00;;;13.10;84.10;;;;;;5023760;28;20083;-76
2022/10/13 05:09:03;;;;;;;19.00;13.05;;;13.10;84.20;;;;;;5023354;28;20566;-76
2022/10/13 05:11:29;;;;;;;20.15;13.55;;;13.10;84.30;;;;;;5020585;28;20047;-75
2022/10/13 05:13:56;;;;;;;20.05;12.98;;;13.10;84.20;;;;;;5021789;28;20239;-75
2022/10/13 05:16:23;;;;;;;21.17;13.70;;;13.00;84.30;;;;;;5022581;28;20045;-76
2022/10/13 05:18:50;;;;;;;19.50;13.80;;;13.00;84.40;;;;;;5024171;28;20089;-75
2022/10/13 05:21:19;;;;;;;19.75;13.20;;;13.00;84.30;;;;;;5002091;28;20042;-75
2022/10/13 05:23:45;;;;;;;21.73;13.85;;;13.00;84.40;;;;;;5035217;28;20033;-74
2022/10/13 05:26:16;;;;;;;19.02;12.60;;;13.00;84.30;;;;;;5040748;28;20329;-75
2022/10/13 05:28:43;;;;;;;24.40;13.90;;;13.00;84.30;;;;;;5041180;28;20097;-75
2022/10/13 05:31:16;;;;;;;23.75;14.57;;;13.00;84.30;;;;;;5025161;28;20042;-75
2022/10/13 05:33:43;;;;;;;23.58;13.18;;;12.90;84.40;;;;;;5001655;28;20041;-75
2022/10/13 05:36:11;;;;;;;25.17;14.35;;;12.90;84.50;;;;;;5023653;28;20038;-75
2022/10/13 05:38:37;;;;;;;24.13;14.50;;;12.80;84.50;;;;;;5007557;28;20448;-75
2022/10/13 05:41:08;;;;;;;19.05;13.73;;;12.80;84.60;;;;;;5027555;28;20040;-74
2022/10/13 05:43:34;;;;;;;18.42;13.40;;;12.70;84.80;;;;;;5027087;28;20079;-74
2022/10/13 05:46:00;;;;;;;18.42;13.45;;;12.70;84.80;;;;;;5030514;28;20121;-76
2022/10/13 05:48:27;;;;;;;21.17;14.55;;;12.60;85.00;;;;;;5012829;28;20112;-74
2022/10/13 05:50:54;;;;;;;21.77;14.85;;;12.60;85.20;;;;;;5032877;28;20029;-74
2022/10/13 05:53:22;;;;;;;26.38;16.02;;;12.60;85.20;;;;;;5026904;28;20033;-75
2022/10/13 05:55:49;;;;;;;21.92;14.18;;;12.60;85.40;;;;;;5028696;28;20032;-75
2022/10/13 05:58:15;;;;;;;22.30;15.07;;;12.60;85.30;;;;;;5020923;28;20036;-74
2022/10/13 06:00:42;;;;;;;21.48;14.10;;;12.60;85.30;;;;;;5020973;28;20065;-76
2022/10/13 06:03:14;;;;;;;23.08;15.50;;;12.60;85.30;;;;;;5026597;28;20045;-74
2022/10/13 06:05:42;;;;;;;23.70;15.63;;;12.60;85.30;;;;;;5008154;28;20441;-75
2022/10/13 06:08:08;;;;;;;24.63;16.52;;;12.60;85.50;;;;;;5029121;28;20485;-75
2022/10/13 06:10:35;;;;;;;23.98;16.33;;;12.60;85.40;;;;;;5020797;28;20041;-75
2022/10/13 06:13:01;;;;;;;25.92;16.48;;;12.60;85.40;;;;;;5008839;28;20041;-75
2022/10/13 06:15:26;;;;;;;28.50;16.55;;;12.60;85.50;;;;;;5022948;28;20037;-75
2022/10/13 06:17:52;;;;;;;24.67;15.43;;;12.60;85.40;;;;;;5027772;28;20469;-75
2022/10/13 06:20:19;;;;;;;24.77;16.48;;;12.60;85.50;;;;;;5024132;28;20096;-73
2022/10/13 06:22:45;;;;;;;23.95;16.42;;;12.60;85.40;;;;;;5005861;28;20372;-74
2022/10/13 06:25:11;;;;;;;24.73;16.27;;;12.60;85.40;;;;;;5023971;28;20025;-75
2022/10/13 06:27:36;;;;;;;27.13;15.93;;;12.70;85.40;;;;;;5021267;28;20045;-77
2022/10/13 06:30:02;;;;;;;26.67;15.82;;;12.70;85.40;;;;;;5025957;28;20037;-75
2022/10/13 06:32:28;;;;;;;28.85;18.67;;;12.70;85.40;;;;;;5003821;28;20549;-74
2022/10/13 06:34:54;;;;;;;24.92;17.77;;;12.70;85.50;;;;;;5019455;28;20026;-75
2022/10/13 06:37:20;;;;;;;30.48;18.65;;;12.70;85.40;;;;;;5029731;28;20064;-75
2022/10/13 06:39:45;;;;;;;28.98;21.17;;;12.70;85.40;;;;;;5025634;28;20043;-76
2022/10/13 06:42:11;;;;;;;29.38;20.98;;;12.80;85.40;;;;;;5028563;28;20029;-76
2022/10/13 06:44:37;;;;;;;30.83;18.77;;;12.80;85.50;;;;;;5034676;28;20033;-74
2022/10/13 06:47:04;;;;;;;28.70;19.88;;;12.80;85.30;;;;;;5031860;28;20469;-74
2022/10/13 06:49:29;;;;;;;29.92;20.00;;;12.80;85.20;;;;;;5009111;28;20437;-74
2022/10/13 06:51:55;;;;;;;30.75;20.60;;;12.90;85.10;;;;;;5017666;28;20473;-76
2022/10/13 06:54:21;;;;;;;34.80;20.63;;;12.90;85.00;;;;;;5018614;28;20069;-76
2022/10/13 06:56:47;;;;;;;31.05;21.20;;;12.90;85.00;;;;;;5024611;28;20052;-75
2022/10/13 06:59:12;;;;;;;30.85;20.70;;;13.00;84.90;;;;;;5025331;28;20517;-75
2022/10/13 07:01:38;;;;;;;31.27;20.83;;;12.90;84.70;;;;;;5034800;28;20056;-75
2022/10/13 07:04:05;;;;;;;35.88;20.88;;;13.00;84.60;;;;;;5029513;28;20057;-77
2022/10/13 07:06:31;;;;;;;34.05;21.85;;;13.00;84.50;;;;;;5030027;28;20068;-75
2022/10/13 07:08:56;;;;;;;31.02;20.65;;;13.10;84.30;;;;;;5027648;28;20057;-76
2022/10/13 07:11:22;;;;;;;34.60;20.88;;;13.10;84.20;;;;;;5026228;28;20041;-75
2022/10/13 07:13:48;;;;;;;30.88;19.88;;;13.10;84.20;;;;;;5024449;28;20121;-73
2022/10/13 07:16:14;;;;;;;32.63;21.05;;;13.10;84.10;;;;;;5023988;28;20043;-75
2022/10/13 07:18:40;;;;;;;27.67;20.10;;;13.10;84.10;;;;;;5025039;28;20146;-75
2022/10/13 07:21:05;;;;;;;32.15;21.65;;;13.20;84.00;;;;;;5025591;28;20046;-75
2022/10/13 07:23:31;;;;;;;30.25;21.40;;;13.20;83.80;;;;;;5028346;28;20120;-75
2022/10/13 07:25:57;;;;;;;35.40;21.88;;;13.20;83.80;;;;;;5025727;28;20041;-75
2022/10/13 07:28:24;;;;;;;29.58;21.92;;;13.30;83.90;;;;;;5020394;28;20460;-74
2022/10/13 07:30:50;;;;;;;32.08;20.98;;;13.30;83.80;;;;;;5024321;28;20125;-75
2022/10/13 07:33:16;;;;;;;29.75;20.80;;;13.40;83.60;;;;;;5009049;28;20076;-77
2022/10/13 07:35:41;;;;;;;33.80;20.80;;;13.40;83.30;;;;;;5024009;28;20061;-78
2022/10/13 07:38:07;;;;;;;36.13;22.08;;;13.50;83.20;;;;;;5029357;28;20045;-75
2022/10/13 07:40:34;;;;;;;29.85;20.88;;;13.50;83.10;;;;;;5011786;28;20084;-75
2022/10/13 07:43:00;;;;;;;31.00;20.63;;;13.50;83.10;;;;;;5017873;28;20156;-75
2022/10/13 07:45:26;;;;;;;28.55;20.98;;;13.60;82.90;;;;;;5007153;28;20049;-78
2022/10/13 07:47:51;;;;;;;33.22;21.75;;;13.60;82.90;;;;;;5025427;28;20068;-78
2022/10/13 07:50:17;;;;;;;29.77;20.92;;;13.60;82.50;;;;;;5022362;28;20389;-75
2022/10/13 07:52:43;;;;;;;31.15;21.42;;;13.60;82.60;;;;;;5026270;28;20021;-78
2022/10/13 07:55:09;;;;;;;34.92;21.63;;;13.60;82.50;;;;;;5024070;28;20034;-78
2022/10/13 07:57:35;;;;;;;32.83;22.15;;;13.70;82.30;;;;;;5026673;28;20537;-76
2022/10/13 08:00:01;;;;;;;36.05;21.63;;;13.80;82.00;;;;;;5024132;28;20116;-77
2022/10/13 08:02:26;;;;;;;32.40;21.95;;;13.70;81.80;;;;;;5012710;28;20365;-76
2022/10/13 08:04:52;;;;;;;30.75;22.35;;;13.90;81.90;;;;;;5024706;28;20084;-79
2022/10/13 08:07:17;;;;;;;29.70;19.98;;;14.00;81.40;;;;;;5045703;28;20045;-75
2022/10/13 08:09:45;;;;;;;31.75;20.17;;;14.10;81.30;;;;;;5036564;28;20092;-76
2022/10/13 08:12:11;;;;;;;31.90;21.13;;;14.10;81.00;;;;;;5024436;28;20120;-75
2022/10/13 08:14:36;;;;;;;28.75;20.08;;;14.10;80.70;;;;;;5026679;28;20451;-77
2022/10/13 08:17:02;;;;;;;34.63;20.92;;;14.10;80.60;;;;;;5027058;28;20411;-76
2022/10/13 08:19:27;;;;;;;30.00;20.80;;;14.20;80.20;;;;;;5024834;28;20111;-76
2022/10/13 08:21:54;;;;;;;28.48;20.20;;;14.20;80.30;;;;;;5025475;28;20033;-77
2022/10/13 08:24:21;;;;;;;30.88;20.83;;;14.30;80.10;;;;;;5026746;28;20045;-76
2022/10/13 08:26:48;;;;;;;32.35;21.15;;;14.40;79.90;;;;;;5025455;28;20440;-78
2022/10/13 08:29:14;;;;;;;33.15;19.50;;;14.40;79.90;;;;;;5023448;28;20021;-75
2022/10/13 08:31:40;;;;;;;26.83;19.58;;;14.40;79.70;;;;;;5028204;28;20069;-77
2022/10/13 08:34:06;;;;;;;31.60;19.70;;;14.40;79.60;;;;;;5026781;28;20041;-76
2022/10/13 08:36:31;;;;;;;36.75;20.10;;;14.30;79.60;;;;;;5023769;28;20034;-77
2022/10/13 08:38:57;;;;;;;29.00;19.73;;;14.20;80.00;;;;;;5022878;28;20117;-78
2022/10/13 08:41:26;;;;;;;30.65;19.50;;;14.20;80.30;;;;;;5027382;28;20052;-78
2022/10/13 08:43:56;;;;;;;30.52;19.23;;;14.20;80.00;;;;;;5019954;28;20056;-76
2022/10/13 08:46:29;;;;;;;26.48;18.58;;;14.20;80.30;;;;;;5006154;28;20128;-76
2022/10/13 08:48:58;;;;;;;24.23;17.85;;;14.10;80.30;;;;;;5027065;28;20505;-75
2022/10/13 08:51:23;;;;;;;26.35;18.95;;;14.10;80.60;;;;;;5025134;28;20038;-75
2022/10/13 08:53:49;;;;;;;26.08;18.95;;;14.00;80.70;;;;;;5015979;28;20052;-74
2022/10/13 08:56:24;;;;;;;27.90;18.30;;;14.10;80.90;;;;;;5006210;28;20025;-78
2022/10/13 08:58:53;;;;;;;31.33;19.05;;;14.00;81.20;;;;;;5023098;28;20104;-76
2022/10/13 09:01:22;;;;;;;25.70;18.02;;;14.10;81.20;;;;;;5023453;28;20120;-76
2022/10/13 09:04:07;;;;;;;26.13;18.15;;;14.10;81.50;;;;;;5026837;28;20033;-76
2022/10/13 09:06:38;;;;;;;24.38;17.20;;;14.10;81.20;;;;;;5024206;28;20042;-76
2022/10/13 09:09:07;;;;;;;27.67;18.27;;;14.30;80.90;;;;;;5022650;28;20417;-76
2022/10/13 09:11:36;;;;;;;26.40;17.67;;;14.30;80.70;;;;;;5032521;28;20033;-75
2022/10/13 09:14:07;;;;;;;25.23;18.30;;;14.30;81.00;;;;;;5018641;28;20117;-74
2022/10/13 09:16:39;;;;;;;23.73;17.02;;;14.40;81.00;;;;;;5025623;28;20037;-78
2022/10/13 09:19:26;;;;;;;26.38;16.88;;;14.40;81.20;;;;;;5025168;28;20033;-76
2022/10/13 09:22:26;;;;;;;26.67;17.13;;;14.50;81.00;;;;;;5032213;28;20040;-75
2022/10/13 09:25:17;;;;;;;23.00;17.02;;;14.50;81.00;;;;;;5016436;28;20048;-78
2022/10/13 09:27:50;;;;;;;24.63;16.05;;;14.60;81.30;;;;;;5039108;28;20036;-75
2022/10/13 09:30:45;;;;;;;26.58;17.42;;;14.60;80.90;;;;;;5013748;28;20033;-75
2022/10/13 09:33:11;;;;;;;26.25;17.08;;;14.60;80.80;;;;;;5023463;28;20029;-76
2022/10/13 09:35:39;;;;;;;23.30;17.02;;;14.70;80.70;;;;;;5014369;28;20064;-77
2022/10/13 09:38:19;;;;;;;24.33;15.98;;;14.70;80.80;;;;;;5023615;28;20041;-76
2022/10/13 09:41:20;;;;;;;26.98;16.80;;;14.80;80.60;;;;;;5016238;28;20050;-77
2022/10/13 09:43:46;;;;;;;21.10;15.93;;;14.90;80.30;;;;;;4980768;28;22428;-76
2022/10/13 09:46:25;;;;;;;20.98;16.30;;;14.90;80.40;;;;;;5024938;28;20469;-76
2022/10/13 09:48:59;;;;;;;23.65;16.33;;;14.90;80.50;;;;;;5007687;28;20042;-76
2022/10/13 09:51:40;;;;;;;24.23;16.25;;;15.00;80.00;;;;;;5027344;28;20053;-81
2022/10/13 09:54:25;;;;;;;24.15;16.17;;;15.10;80.20;;;;;;5013968;28;20066;-78
2022/10/13 09:56:57;;;;;;;22.42;16.45;;;15.10;80.10;;;;;;5032266;28;20032;-80
2022/10/13 09:59:31;;;;;;;24.10;16.15;;;15.10;80.10;;;;;;5031638;28;20025;-76
2022/10/13 10:02:22;;;;;;;24.77;16.42;;;15.10;80.10;;;;;;5002446;28;20289;-77
2022/10/13 10:04:49;;;;;;;23.63;15.60;;;15.20;79.90;;;;;;5009579;28;20120;-76
2022/10/13 10:07:20;;;;;;;24.33;15.68;;;15.30;79.80;;;;;;5023749;28;20124;-78
2022/10/13 10:10:00;;;;;;;22.23;16.05;;;15.50;79.80;;;;;;5023851;28;20124;-76
2022/10/13 10:12:28;;;;;;;21.80;15.82;;;15.50;79.60;;;;;;5018867;28;20396;-77
2022/10/13 10:14:54;;;;;;;20.95;15.68;;;15.50;79.90;;;;;;5022284;28;20044;-76
2022/10/13 10:17:44;;;;;;;24.10;16.15;;;15.50;80.70;;;;;;5013873;28;20041;-77
2022/10/13 10:20:18;;;;;;;20.23;15.27;;;15.60;80.70;;;;;;5014040;28;20022;-79
2022/10/13 10:23:05;;;;;;;24.60;16.08;;;15.60;80.50;;;;;;5017319;28;20395;-77
2022/10/13 10:25:43;;;;;;;20.08;15.02;;;15.60;80.40;;;;;;5012630;28;20505;-78
2022/10/13 10:28:37;;;;;;;22.98;16.48;;;15.60;80.30;;;;;;5014515;28;20049;-76
2022/10/13 10:31:15;;;;;;;23.23;15.68;;;15.60;80.50;;;;;;5015587;28;20466;-80
2022/10/13 10:33:52;;;;;;;19.05;14.90;;;15.60;80.60;;;;;;5014838;28;20046;-80
2022/10/13 10:36:30;;;;;;;21.15;15.45;;;15.70;80.30;;;;;;5016256;28;20028;-80
2022/10/13 10:39:20;;;;;;;23.27;15.90;;;15.80;80.40;;;;;;5019934;28;20098;-80
2022/10/13 10:42:16;;;;;;;21.55;15.32;;;15.80;80.10;;;;;;4998320;28;20443;-79
2022/10/13 10:44:46;;;;;;;22.70;15.73;;;15.90;80.60;;;;;;5016082;28;20115;-79
2022/10/13 10:47:25;;;;;;;21.67;14.85;;;16.10;80.00;;;;;;5017081;28;20037;-77
2022/10/13 10:49:58;;;;;;;23.80;16.88;;;16.20;79.90;;;;;;5024560;28;20042;-79
2022/10/13 10:52:49;;;;;;;21.60;15.55;;;16.20;78.70;;;;;;5007232;28;20445;-78
2022/10/13 10:55:24;;;;;;;20.48;15.07;;;16.20;78.90;;;;;;5013105;28;20052;-79
2022/10/13 10:58:10;;;;;;;22.95;15.38;;;16.10;78.20;;;;;;5013819;28;20050;-80
2022/10/13 11:00:50;;;;;;;22.73;14.70;;;16.10;78.30;;;;;;5010951;28;20393;-76
2022/10/13 11:03:39;;;;;;;22.88;15.32;;;16.10;78.10;;;;;;5013963;28;20676;-80
2022/10/13 11:06:11;;;;;;;21.05;14.50;;;16.10;78.60;;;;;;5013884;28;20041;-76
2022/10/13 11:08:36;;;;;;;21.77;15.88;;;16.10;78.30;;;;;;5013628;28;20105;-79
2022/10/13 11:11:21;;;;;;;20.95;15.43;;;16.00;78.40;;;;;;5014833;28;20113;-80
2022/10/13 11:13:51;;;;;;;22.45;15.43;;;15.90;79.00;;;;;;5015610;28;20038;-80
2022/10/13 11:17:09;;;;;;;25.60;16.15;;;15.80;79.50;;;;;;5021715;28;20075;-79
2022/10/13 11:19:39;;;;;;;22.88;15.20;;;15.80;79.50;;;;;;5005957;28;20334;-79
2022/10/13 11:22:04;;;;;;;22.58;15.93;;;15.70;79.90;;;;;;5023617;28;20057;-77
2022/10/13 11:24:33;;;;;;;22.48;15.02;;;15.70;79.80;;;;;;5024283;28;20520;-77
2022/10/13 11:27:08;;;;;;;24.80;16.00;;;15.70;79.40;;;;;;5025998;28;20030;-78
2022/10/13 11:29:42;;;;;;;22.73;15.20;;;15.80;79.40;;;;;;5024289;28;20037;-77
2022/10/13 11:32:29;;;;;;;27.65;15.48;;;16.00;78.90;;;;;;5020253;28;20623;-78
2022/10/13 11:34:59;;;;;;;22.33;14.55;;;16.10;79.10;;;;;;5019472;28;20036;-75
2022/10/13 11:38:04;;;;;;;21.90;15.45;;;16.20;78.40;;;;;;5025126;28;20021;-76
2022/10/13 11:40:57;;;;;;;23.90;15.80;;;16.30;78.20;;;;;;5011452;28;20044;-77
2022/10/13 11:43:30;;;;;;;23.15;14.77;;;16.30;78.20;;;;;;5023831;28;20068;-75
2022/10/13 11:46:20;;;;;;;22.20;14.38;;;16.50;77.90;;;;;;5027542;28;20034;-77
2022/10/13 11:48:49;;;;;;;19.42;13.98;;;16.70;77.30;;;;;;5026924;28;20030;-77
2022/10/13 11:51:57;;;;;;;22.63;15.77;;;16.80;77.40;;;;;;5026712;28;20033;-75
2022/10/13 11:54:45;;;;;;;26.27;15.57;;;16.80;77.10;;;;;;5016428;28;20123;-78
2022/10/13 11:57:23;;;;;;;23.23;16.50;;;16.80;77.90;;;;;;5024830;28;20049;-77
2022/10/13 11:59:54;;;;;;;22.73;16.60;;;16.70;79.20;;;;;;5025124;28;20040;-78
2022/10/13 12:02:22;;;;;;;23.17;16.58;;;16.70;80.10;;;;;;5027544;28;20050;-78
2022/10/13 12:05:23;;;;;;;23.92;16.25;;;16.70;80.00;;;;;;5028804;28;20107;-78
2022/10/13 12:07:51;;;;;;;25.65;17.15;;;16.70;79.80;;;;;;5010972;28;20037;-77
2022/10/13 12:10:23;;;;;;;23.33;17.55;;;16.60;80.20;;;;;;5015525;28;20134;-78
2022/10/13 12:12:49;;;;;;;24.65;16.70;;;16.60;80.80;;;;;;5042110;28;20525;-78
2022/10/13 12:15:29;;;;;;;23.65;17.02;;;16.60;80.20;;;;;;5029168;28;20473;-78
2022/10/13 12:17:55;;;;;;;23.33;15.77;;;16.60;80.70;;;;;;5028633;28;20088;-79
2022/10/13 12:20:23;;;;;;;22.45;16.23;;;16.60;80.10;;;;;;5025203;28;20079;-78
2022/10/13 12:22:50;;;;;;;25.10;17.73;;;16.70;79.60;;;;;;5028398;28;20109;-79
2022/10/13 12:25:19;;;;;;;21.65;15.93;;;16.70;80.20;;;;;;5025609;28;20029;-77
2022/10/13 12:27:48;;;;;;;22.98;16.48;;;16.80;80.50;;;;;;5026904;28;20073;-76
2022/10/13 12:30:22;;;;;;;21.13;16.50;;;16.60;80.00;;;;;;5024166;28;20339;-78
2022/10/13 12:32:49;;;;;;;;;;;16.70;80.20;;;;;;5022656;28;20574;-80
2022/10/13 12:35:20;;;;;;;21.10;16.45;;;16.60;80.40;;;;;;5024884;28;19905;-74
2022/10/13 12:37:46;;;;;;;22.23;17.58;;;16.40;80.30;;;;;;5006409;28;20030;-77
2022/10/13 12:40:15;;;;;;;25.63;16.98;;;16.40;80.40;;;;;;5006059;28;20333;-76
2022/10/13 12:42:41;;;;;;;22.30;16.85;;;16.40;81.00;;;;;;5024690;28;20042;-75
2022/10/13 12:45:14;;;;;;;23.25;16.67;;;16.30;81.60;;;;;;5022364;28;20207;-74